aviador You're here:

DTTF Decoded Metar

GAFSA in TUNISIA
Report Time2018-07-23 15:00:00
UTC Time2018-07-23 15:44:14
Flight Rules vfr VFR
Wind070° at 16 kt
W.Decomp.*RWY 05: 15.1 kt HW 5.2 kt RCW
W.Rank070° ranks 5
Current wind is above 070° avg. (9.3)
Visibility8000 m
Phenomena:N/A
Clouds:Scattered 026 Hf
Scattered 033 Hf
Expected CloudBase > 10,400 ft AGL from Temp-Dew spread
CeilingNone
Temp39°C (ISA +26)
Dew Point13°C (21% RH)
Heat Index38.3°C
AAT34.1°C
QNH1008 hPa
Density Alt4,324 ft
Elevation1,030 ft
Report Wrong Elevation
Raw Report
METAR DTTF 231500Z 07016KT 8000 SCT026 SCT033 39/13 Q1008 SIROCCO=

Extra information for DTTF:More info

Metar Taf Metar & Taf Last 4 Metars F.Rules Stats Wind Profile Meteogram Temp Stats Airport Information Weather charts Add Link Nearby VenuesMetar ALERT Operation Metar Decoded Social comments